sensor_id;sensor_type;location;lat;lon;timestamp;pressure;altitude;pressure_sealevel;temperature;humidity
38303;BME280;24103;42.454;27.400;2023-05-10T00:01:05;101242.13;;;9.69;100.00
38303;BME280;24103;42.454;27.400;2023-05-10T00:03:31;101240.75;;;9.61;100.00
38303;BME280;24103;42.454;27.400;2023-05-10T00:05:56;101239.69;;;9.65;100.00
38303;BME280;24103;42.454;27.400;2023-05-10T00:08:22;101238.03;;;9.83;100.00
38303;BME280;24103;42.454;27.400;2023-05-10T00:10:47;101230.59;;;9.72;100.00
38303;BME280;24103;42.454;27.400;2023-05-10T00:13:13;101226.31;;;9.49;100.00
38303;BME280;24103;42.454;27.400;2023-05-10T00:15:39;101231.38;;;9.53;100.00
38303;BME280;24103;42.454;27.400;2023-05-10T00:18:04;101233.22;;;9.51;100.00
38303;BME280;24103;42.454;27.400;2023-05-10T00:20:30;101235.81;;;9.53;100.00
38303;BME280;24103;42.454;27.400;2023-05-10T00:22:55;101223.25;;;9.58;100.00
38303;BME280;24103;42.454;27.400;2023-05-10T00:25:21;101223.66;;;9.69;100.00
38303;BME280;24103;42.454;27.400;2023-05-10T00:27:49;101231.53;;;9.71;100.00
38303;BME280;24103;42.454;27.400;2023-05-10T00:30:15;101222.88;;;9.67;100.00
38303;BME280;24103;42.454;27.400;2023-05-10T00:32:41;101224.19;;;9.77;100.00
38303;BME280;24103;42.454;27.400;2023-05-10T00:35:07;101225.59;;;9.66;100.00
38303;BME280;24103;42.454;27.400;2023-05-10T00:37:33;101229.94;;;9.46;100.00
38303;BME280;24103;42.454;27.400;2023-05-10T00:39:59;101225.41;;;9.70;100.00
38303;BME280;24103;42.454;27.400;2023-05-10T00:42:25;101226.63;;;9.62;100.00
38303;BME280;24103;42.454;27.400;2023-05-10T00:44:50;101224.38;;;9.73;100.00
38303;BME280;24103;42.454;27.400;2023-05-10T00:47:16;101228.56;;;9.78;100.00
38303;BME280;24103;42.454;27.400;2023-05-10T00:49:42;101227.81;;;9.75;100.00
38303;BME280;24103;42.454;27.400;2023-05-10T00:52:08;101226.44;;;9.87;100.00
38303;BME280;24103;42.454;27.400;2023-05-10T00:54:34;101229.78;;;9.90;100.00
38303;BME280;24103;42.454;27.400;2023-05-10T00:56:59;101232.06;;;9.98;100.00
38303;BME280;24103;42.454;27.400;2023-05-10T00:59:25;101229.28;;;9.82;100.00
38303;BME280;24103;42.454;27.400;2023-05-10T01:01:51;101227.41;;;9.84;100.00
38303;BME280;24103;42.454;27.400;2023-05-10T01:04:17;101219.44;;;9.86;100.00
38303;BME280;24103;42.454;27.400;2023-05-10T01:06:43;101216.47;;;9.93;100.00
38303;BME280;24103;42.454;27.400;2023-05-10T01:09:09;101216.00;;;9.84;100.00
38303;BME280;24103;42.454;27.400;2023-05-10T01:11:38;101212.88;;;9.94;100.00
38303;BME280;24103;42.454;27.400;2023-05-10T01:14:04;101216.66;;;9.89;100.00
38303;BME280;24103;42.454;27.400;2023-05-10T01:16:36;101214.88;;;9.89;100.00
38303;BME280;24103;42.454;27.400;2023-05-10T01:19:04;101207.56;;;9.55;100.00
38303;BME280;24103;42.454;27.400;2023-05-10T01:24:48;101208.34;;;9.77;100.00
38303;BME280;24103;42.454;27.400;2023-05-10T01:33:14;101207.03;;;9.47;100.00
38303;BME280;24103;42.454;27.400;2023-05-10T01:35:54;101207.84;;;9.69;100.00
38303;BME280;24103;42.454;27.400;2023-05-10T01:38:47;101206.34;;;9.64;100.00
38303;BME280;24103;42.454;27.400;2023-05-10T01:46:35;101209.13;;;10.19;100.00
38303;BME280;24103;42.454;27.400;2023-05-10T01:49:03;101199.34;;;10.02;100.00
38303;BME280;24103;42.454;27.400;2023-05-10T01:51:42;101204.69;;;10.01;100.00
38303;BME280;24103;42.454;27.400;2023-05-10T01:54:10;101211.44;;;9.87;100.00
38303;BME280;24103;42.454;27.400;2023-05-10T01:56:37;101207.00;;;9.88;100.00
38303;BME280;24103;42.454;27.400;2023-05-10T01:59:08;101198.91;;;9.92;100.00
38303;BME280;24103;42.454;27.400;2023-05-10T02:01:36;101211.72;;;9.81;100.00
38303;BME280;24103;42.454;27.400;2023-05-10T02:04:02;101208.50;;;10.14;100.00
38303;BME280;24103;42.454;27.400;2023-05-10T02:06:30;101217.63;;;9.86;100.00
38303;BME280;24103;42.454;27.400;2023-05-10T02:08:57;101216.06;;;9.82;100.00
38303;BME280;24103;42.454;27.400;2023-05-10T02:11:23;101214.31;;;9.62;100.00
38303;BME280;24103;42.454;27.400;2023-05-10T02:13:51;101204.22;;;9.51;100.00
38303;BME280;24103;42.454;27.400;2023-05-10T02:16:21;101208.44;;;9.55;100.00
38303;BME280;24103;42.454;27.400;2023-05-10T02:18:50;101211.53;;;9.45;100.00
38303;BME280;24103;42.454;27.400;2023-05-10T02:21:18;101209.91;;;9.42;100.00
38303;BME280;24103;42.454;27.400;2023-05-10T02:23:44;101211.78;;;9.38;100.00
38303;BME280;24103;42.454;27.400;2023-05-10T02:26:11;101208.09;;;9.43;100.00
38303;BME280;24103;42.454;27.400;2023-05-10T02:28:40;101207.25;;;9.42;100.00
38303;BME280;24103;42.454;27.400;2023-05-10T02:31:06;101204.34;;;9.48;100.00
38303;BME280;24103;42.454;27.400;2023-05-10T02:33:33;101200.66;;;9.52;100.00
38303;BME280;24103;42.454;27.400;2023-05-10T02:36:01;101205.25;;;9.27;100.00
38303;BME280;24103;42.454;27.400;2023-05-10T02:38:28;101199.25;;;9.44;100.00
38303;BME280;24103;42.454;27.400;2023-05-10T02:40:57;101209.66;;;9.47;100.00
38303;BME280;24103;42.454;27.400;2023-05-10T02:43:22;101209.09;;;9.40;100.00
38303;BME280;24103;42.454;27.400;2023-05-10T02:45:49;101212.16;;;9.91;100.00
38303;BME280;24103;42.454;27.400;2023-05-10T02:48:15;101207.78;;;9.71;100.00
38303;BME280;24103;42.454;27.400;2023-05-10T02:50:44;101204.91;;;9.96;100.00
38303;BME280;24103;42.454;27.400;2023-05-10T02:53:13;101202.34;;;10.13;100.00
38303;BME280;24103;42.454;27.400;2023-05-10T02:55:40;101205.91;;;10.12;100.00
38303;BME280;24103;42.454;27.400;2023-05-10T02:58:08;101209.72;;;9.86;100.00
38303;BME280;24103;42.454;27.400;2023-05-10T03:00:33;101213.38;;;9.84;100.00
38303;BME280;24103;42.454;27.400;2023-05-10T03:02:59;101201.66;;;9.89;100.00
38303;BME280;24103;42.454;27.400;2023-05-10T03:05:25;101211.00;;;9.77;100.00
38303;BME280;24103;42.454;27.400;2023-05-10T03:07:51;101214.16;;;9.86;100.00
38303;BME280;24103;42.454;27.400;2023-05-10T03:10:18;101214.22;;;10.24;100.00
38303;BME280;24103;42.454;27.400;2023-05-10T03:18:04;101204.28;;;10.29;100.00
38303;BME280;24103;42.454;27.400;2023-05-10T03:25:47;101217.34;;;10.53;100.00
38303;BME280;24103;42.454;27.400;2023-05-10T03:28:14;101212.06;;;10.89;100.00
38303;BME280;24103;42.454;27.400;2023-05-10T03:30:41;101209.50;;;10.87;100.00
38303;BME280;24103;42.454;27.400;2023-05-10T03:33:08;101215.34;;;10.94;100.00
38303;BME280;24103;42.454;27.400;2023-05-10T03:35:33;101215.53;;;11.26;100.00
38303;BME280;24103;42.454;27.400;2023-05-10T03:37:59;101207.25;;;11.85;100.00
38303;BME280;24103;42.454;27.400;2023-05-10T03:40:26;101211.91;;;12.14;100.00
38303;BME280;24103;42.454;27.400;2023-05-10T03:42:54;101213.69;;;12.30;100.00
38303;BME280;24103;42.454;27.400;2023-05-10T03:45:19;101216.25;;;12.15;100.00
38303;BME280;24103;42.454;27.400;2023-05-10T03:47:45;101219.94;;;12.13;100.00
38303;BME280;24103;42.454;27.400;2023-05-10T03:50:10;101212.81;;;13.09;100.00
38303;BME280;24103;42.454;27.400;2023-05-10T03:52:36;101212.94;;;13.38;100.00
38303;BME280;24103;42.454;27.400;2023-05-10T03:55:04;101200.69;;;13.66;100.00
38303;BME280;24103;42.454;27.400;2023-05-10T03:57:30;101186.75;;;14.19;95.94
38303;BME280;24103;42.454;27.400;2023-05-10T03:59:55;101193.69;;;13.93;97.13
38303;BME280;24103;42.454;27.400;2023-05-10T04:02:21;101206.06;;;13.50;100.00
38303;BME280;24103;42.454;27.400;2023-05-10T04:04:47;101210.19;;;13.39;100.00
38303;BME280;24103;42.454;27.400;2023-05-10T04:07:13;101205.72;;;13.99;98.83
38303;BME280;24103;42.454;27.400;2023-05-10T04:09:38;101208.19;;;14.45;98.25
38303;BME280;24103;42.454;27.400;2023-05-10T04:12:04;101174.47;;;16.54;79.15
38303;BME280;24103;42.454;27.400;2023-05-10T04:14:30;101152.59;;;17.22;67.17
38303;BME280;24103;42.454;27.400;2023-05-10T04:16:56;101160.03;;;17.29;66.78
38303;BME280;24103;42.454;27.400;2023-05-10T04:19:21;101172.44;;;16.08;71.95
38303;BME280;24103;42.454;27.400;2023-05-10T04:21:47;101188.19;;;15.34;80.18
38303;BME280;24103;42.454;27.400;2023-05-10T04:24:12;101191.16;;;15.82;78.80
38303;BME280;24103;42.454;27.400;2023-05-10T04:26:37;101177.53;;;16.61;73.70
38303;BME280;24103;42.454;27.400;2023-05-10T04:29:03;101137.22;;;19.14;56.46
38303;BME280;24103;42.454;27.400;2023-05-10T04:31:28;101125.28;;;20.01;52.99
38303;BME280;24103;42.454;27.400;2023-05-10T04:33:54;101101.72;;;21.42;47.99
38303;BME280;24103;42.454;27.400;2023-05-10T04:36:20;101093.97;;;21.29;47.33
38303;BME280;24103;42.454;27.400;2023-05-10T04:38:45;101120.63;;;19.21;51.07
38303;BME280;24103;42.454;27.400;2023-05-10T04:41:11;101153.63;;;17.55;57.75
38303;BME280;24103;42.454;27.400;2023-05-10T04:43:37;101173.56;;;16.30;66.24
38303;BME280;24103;42.454;27.400;2023-05-10T04:46:04;101187.25;;;15.74;74.25
38303;BME280;24103;42.454;27.400;2023-05-10T04:48:30;101193.97;;;15.54;77.13
38303;BME280;24103;42.454;27.400;2023-05-10T04:50:55;101194.81;;;15.41;79.51
38303;BME280;24103;42.454;27.400;2023-05-10T04:53:21;101207.63;;;15.09;82.52
38303;BME280;24103;42.454;27.400;2023-05-10T04:55:47;101209.75;;;14.77;86.79
38303;BME280;24103;42.454;27.400;2023-05-10T04:58:13;101211.31;;;14.52;87.76
38303;BME280;24103;42.454;27.400;2023-05-10T05:00:38;101222.63;;;13.98;92.97
38303;BME280;24103;42.454;27.400;2023-05-10T05:03:04;101219.38;;;14.50;90.97
38303;BME280;24103;42.454;27.400;2023-05-10T05:05:30;101216.25;;;15.13;88.23
38303;BME280;24103;42.454;27.400;2023-05-10T05:07:55;101203.16;;;15.62;80.80
38303;BME280;24103;42.454;27.400;2023-05-10T05:10:21;101209.75;;;14.77;86.15
38303;BME280;24103;42.454;27.400;2023-05-10T05:12:47;101210.75;;;14.32;90.64
38303;BME280;24103;42.454;27.400;2023-05-10T05:15:12;101212.44;;;14.62;90.48
38303;BME280;24103;42.454;27.400;2023-05-10T05:17:38;101204.25;;;15.86;80.98
38303;BME280;24103;42.454;27.400;2023-05-10T05:20:03;101192.81;;;16.22;76.58
38303;BME280;24103;42.454;27.400;2023-05-10T05:22:29;101193.59;;;15.86;77.08
38303;BME280;24103;42.454;27.400;2023-05-10T05:24:55;101185.47;;;16.87;71.50
38303;BME280;24103;42.454;27.400;2023-05-10T05:27:22;101167.75;;;17.68;65.19
38303;BME280;24103;42.454;27.400;2023-05-10T05:29:57;101155.63;;;18.20;63.05
38303;BME280;24103;42.454;27.400;2023-05-10T05:32:25;101169.00;;;18.09;61.35
38303;BME280;24103;42.454;27.400;2023-05-10T05:34:51;101161.28;;;18.50;58.27
38303;BME280;24103;42.454;27.400;2023-05-10T05:37:19;101161.19;;;18.40;57.99
38303;BME280;24103;42.454;27.400;2023-05-10T05:39:45;101151.25;;;19.28;55.74
38303;BME280;24103;42.454;27.400;2023-05-10T05:42:11;101110.00;;;22.69;45.98
38303;BME280;24103;42.454;27.400;2023-05-10T05:44:37;101083.91;;;24.01;41.66
38303;BME280;24103;42.454;27.400;2023-05-10T05:47:03;101100.50;;;23.80;41.79
38303;BME280;24103;42.454;27.400;2023-05-10T05:49:30;101103.44;;;22.36;43.47
38303;BME280;24103;42.454;27.400;2023-05-10T05:51:59;101106.44;;;21.77;44.86
38303;BME280;24103;42.454;27.400;2023-05-10T05:54:26;101143.22;;;20.11;48.44
38303;BME280;24103;42.454;27.400;2023-05-10T05:56:54;101169.81;;;18.32;53.69
38303;BME280;24103;42.454;27.400;2023-05-10T05:59:20;101171.41;;;18.35;56.91
38303;BME280;24103;42.454;27.400;2023-05-10T06:01:46;101180.34;;;18.68;55.78
38303;BME280;24103;42.454;27.400;2023-05-10T06:04:11;101165.22;;;18.23;56.47
38303;BME280;24103;42.454;27.400;2023-05-10T06:06:37;101162.16;;;19.57;52.45
38303;BME280;24103;42.454;27.400;2023-05-10T06:09:03;101169.72;;;18.11;55.92
38303;BME280;24103;42.454;27.400;2023-05-10T06:11:28;101193.38;;;17.24;61.43
38303;BME280;24103;42.454;27.400;2023-05-10T06:13:54;101188.41;;;17.66;62.18
38303;BME280;24103;42.454;27.400;2023-05-10T06:16:19;101180.88;;;18.94;58.09
38303;BME280;24103;42.454;27.400;2023-05-10T06:18:45;101188.34;;;19.96;52.80
38303;BME280;24103;42.454;27.400;2023-05-10T06:21:10;101143.50;;;21.16;48.03
38303;BME280;24103;42.454;27.400;2023-05-10T06:23:36;101139.53;;;21.30;46.99
38303;BME280;24103;42.454;27.400;2023-05-10T06:26:01;101156.28;;;19.94;49.99
38303;BME280;24103;42.454;27.400;2023-05-10T06:28:27;101187.09;;;18.94;53.85
38303;BME280;24103;42.454;27.400;2023-05-10T06:30:52;101172.88;;;20.09;50.89
38303;BME280;24103;42.454;27.400;2023-05-10T06:33:18;101163.03;;;20.29;49.26
38303;BME280;24103;42.454;27.400;2023-05-10T06:35:43;101166.28;;;21.03;47.75
38303;BME280;24103;42.454;27.400;2023-05-10T06:38:09;101147.47;;;21.79;47.41
38303;BME280;24103;42.454;27.400;2023-05-10T06:40:34;101150.63;;;22.58;43.91
38303;BME280;24103;42.454;27.400;2023-05-10T06:43:01;101155.75;;;20.60;47.59
38303;BME280;24103;42.454;27.400;2023-05-10T06:45:26;101168.56;;;19.45;49.55
38303;BME280;24103;42.454;27.400;2023-05-10T06:47:52;101192.81;;;18.01;55.27
38303;BME280;24103;42.454;27.400;2023-05-10T06:50:18;101198.19;;;18.12;56.87
38303;BME280;24103;42.454;27.400;2023-05-10T06:52:43;101191.09;;;18.45;54.59
38303;BME280;24103;42.454;27.400;2023-05-10T06:55:09;101167.34;;;20.51;49.26
38303;BME280;24103;42.454;27.400;2023-05-10T06:57:34;101153.34;;;21.45;45.69
38303;BME280;24103;42.454;27.400;2023-05-10T07:00:00;101140.75;;;23.73;40.60
38303;BME280;24103;42.454;27.400;2023-05-10T07:02:26;101116.53;;;24.16;39.23
38303;BME280;24103;42.454;27.400;2023-05-10T07:04:52;101114.81;;;24.15;39.33
38303;BME280;24103;42.454;27.400;2023-05-10T07:13:49;101114.44;;;25.43;36.78
38303;BME280;24103;42.454;27.400;2023-05-10T07:16:14;101110.56;;;25.12;36.66
38303;BME280;24103;42.454;27.400;2023-05-10T07:18:40;101140.13;;;23.79;38.96
38303;BME280;24103;42.454;27.400;2023-05-10T07:21:05;101115.53;;;25.73;35.28
38303;BME280;24103;42.454;27.400;2023-05-10T07:23:31;101144.56;;;22.92;39.86
38303;BME280;24103;42.454;27.400;2023-05-10T07:25:56;101169.91;;;20.62;44.63
38303;BME280;24103;42.454;27.400;2023-05-10T07:28:23;101200.44;;;19.06;49.01
38303;BME280;24103;42.454;27.400;2023-05-10T07:30:49;101180.13;;;21.27;44.42
38303;BME280;24103;42.454;27.400;2023-05-10T07:33:15;101162.28;;;22.49;41.97
38303;BME280;24103;42.454;27.400;2023-05-10T07:35:41;101180.75;;;21.78;42.53
38303;BME280;24103;42.454;27.400;2023-05-10T07:38:07;101179.75;;;22.44;41.31
38303;BME280;24103;42.454;27.400;2023-05-10T07:40:33;101197.84;;;20.50;45.29
38303;BME280;24103;42.454;27.400;2023-05-10T07:42:58;101209.84;;;20.05;47.24
38303;BME280;24103;42.454;27.400;2023-05-10T07:45:26;101174.38;;;23.34;42.06
38303;BME280;24103;42.454;27.400;2023-05-10T07:47:51;101152.31;;;24.26;37.95
38303;BME280;24103;42.454;27.400;2023-05-10T07:50:17;101178.81;;;24.65;38.28
38303;BME280;24103;42.454;27.400;2023-05-10T07:52:42;101176.31;;;24.29;37.50
38303;BME280;24103;42.454;27.400;2023-05-10T07:55:08;101164.03;;;23.74;37.75
38303;BME280;24103;42.454;27.400;2023-05-10T07:57:34;101150.19;;;24.03;37.61
38303;BME280;24103;42.454;27.400;2023-05-10T08:00:00;101161.69;;;24.05;37.21
38303;BME280;24103;42.454;27.400;2023-05-10T08:02:25;101184.75;;;22.02;41.33
38303;BME280;24103;42.454;27.400;2023-05-10T08:04:51;101194.00;;;21.03;42.64
38303;BME280;24103;42.454;27.400;2023-05-10T08:07:17;101203.59;;;20.26;44.58
38303;BME280;24103;42.454;27.400;2023-05-10T08:09:42;101215.25;;;20.15;45.16
38303;BME280;24103;42.454;27.400;2023-05-10T08:12:08;101213.22;;;19.56;46.66
38303;BME280;24103;42.454;27.400;2023-05-10T08:14:33;101225.38;;;20.02;45.83
38303;BME280;24103;42.454;27.400;2023-05-10T08:17:01;101223.63;;;19.49;47.48
38303;BME280;24103;42.454;27.400;2023-05-10T08:19:27;101224.44;;;19.07;49.49
38303;BME280;24103;42.454;27.400;2023-05-10T08:21:52;101228.28;;;19.14;49.02
38303;BME280;24103;42.454;27.400;2023-05-10T08:24:20;101228.66;;;18.10;51.40
38303;BME280;24103;42.454;27.400;2023-05-10T08:26:46;101236.47;;;17.55;53.10
38303;BME280;24103;42.454;27.400;2023-05-10T08:29:12;101236.88;;;17.26;56.92
38303;BME280;24103;42.454;27.400;2023-05-10T08:31:38;101250.56;;;17.21;60.84
38303;BME280;24103;42.454;27.400;2023-05-10T08:34:03;101247.16;;;16.45;62.13
38303;BME280;24103;42.454;27.400;2023-05-10T08:36:29;101253.78;;;16.27;66.23
38303;BME280;24103;42.454;27.400;2023-05-10T08:38:55;101270.34;;;15.93;67.55
38303;BME280;24103;42.454;27.400;2023-05-10T08:41:21;101277.06;;;15.46;69.67
38303;BME280;24103;42.454;27.400;2023-05-10T08:43:47;101274.09;;;15.63;74.75
38303;BME280;24103;42.454;27.400;2023-05-10T08:46:16;101276.41;;;15.95;71.95
38303;BME280;24103;42.454;27.400;2023-05-10T08:48:46;101287.59;;;16.26;72.40
38303;BME280;24103;42.454;27.400;2023-05-10T08:51:18;101279.50;;;16.28;69.83
38303;BME280;24103;42.454;27.400;2023-05-10T08:53:45;101292.84;;;16.28;71.43
38303;BME280;24103;42.454;27.400;2023-05-10T08:56:11;101283.75;;;15.92;70.98
38303;BME280;24103;42.454;27.400;2023-05-10T08:58:37;101283.25;;;15.99;71.84
38303;BME280;24103;42.454;27.400;2023-05-10T09:01:04;101287.59;;;16.13;76.91
38303;BME280;24103;42.454;27.400;2023-05-10T09:03:30;101280.69;;;16.24;72.67
38303;BME280;24103;42.454;27.400;2023-05-10T09:05:56;101278.00;;;16.36;71.40
38303;BME280;24103;42.454;27.400;2023-05-10T09:08:23;101276.94;;;17.61;69.42
38303;BME280;24103;42.454;27.400;2023-05-10T09:10:52;101276.56;;;17.90;60.91
38303;BME280;24103;42.454;27.400;2023-05-10T09:13:18;101268.22;;;18.29;59.52
38303;BME280;24103;42.454;27.400;2023-05-10T09:15:45;101291.66;;;18.48;57.18
38303;BME280;24103;42.454;27.400;2023-05-10T09:18:11;101268.25;;;17.82;60.15
38303;BME280;24103;42.454;27.400;2023-05-10T09:20:36;101253.84;;;18.52;58.60
38303;BME280;24103;42.454;27.400;2023-05-10T09:23:02;101249.22;;;19.42;53.35
38303;BME280;24103;42.454;27.400;2023-05-10T09:25:27;101252.09;;;19.29;58.89
38303;BME280;24103;42.454;27.400;2023-05-10T09:27:53;101246.25;;;19.98;52.92
38303;BME280;24103;42.454;27.400;2023-05-10T09:30:29;101251.44;;;19.90;51.96
38303;BME280;24103;42.454;27.400;2023-05-10T09:32:57;101249.66;;;18.82;52.75
38303;BME280;24103;42.454;27.400;2023-05-10T09:35:24;101259.59;;;17.67;58.76
38303;BME280;24103;42.454;27.400;2023-05-10T09:37:52;101254.00;;;17.35;64.25
38303;BME280;24103;42.454;27.400;2023-05-10T09:40:29;101255.56;;;17.02;59.13
38303;BME280;24103;42.454;27.400;2023-05-10T09:43:03;101259.63;;;16.45;64.20
38303;BME280;24103;42.454;27.400;2023-05-10T09:45:33;101281.59;;;16.61;68.93
38303;BME280;24103;42.454;27.400;2023-05-10T09:48:01;101302.84;;;16.50;71.51
38303;BME280;24103;42.454;27.400;2023-05-10T09:50:28;101286.34;;;16.82;71.19
38303;BME280;24103;42.454;27.400;2023-05-10T09:52:56;101281.22;;;16.42;71.95
38303;BME280;24103;42.454;27.400;2023-05-10T09:55:26;101285.88;;;16.51;70.00
38303;BME280;24103;42.454;27.400;2023-05-10T09:58:02;101283.88;;;16.29;76.27
38303;BME280;24103;42.454;27.400;2023-05-10T10:00:35;101280.09;;;16.70;72.84
38303;BME280;24103;42.454;27.400;2023-05-10T10:03:01;101279.00;;;16.85;75.48
38303;BME280;24103;42.454;27.400;2023-05-10T10:05:29;101285.19;;;16.86;73.56
38303;BME280;24103;42.454;27.400;2023-05-10T10:07:56;101289.84;;;16.32;69.00
38303;BME280;24103;42.454;27.400;2023-05-10T10:10:23;101289.84;;;16.19;77.65
38303;BME280;24103;42.454;27.400;2023-05-10T10:12:49;101304.34;;;16.28;74.24
38303;BME280;24103;42.454;27.400;2023-05-10T10:15:15;101299.16;;;16.14;75.25
38303;BME280;24103;42.454;27.400;2023-05-10T10:17:43;101288.03;;;16.46;73.29
38303;BME280;24103;42.454;27.400;2023-05-10T10:20:09;101282.25;;;16.52;71.07
38303;BME280;24103;42.454;27.400;2023-05-10T10:22:34;101303.72;;;16.50;70.11
38303;BME280;24103;42.454;27.400;2023-05-10T10:25:01;101307.88;;;16.42;69.37
38303;BME280;24103;42.454;27.400;2023-05-10T10:27:40;101291.38;;;16.24;71.72
38303;BME280;24103;42.454;27.400;2023-05-10T10:33:36;101295.78;;;16.62;74.25
38303;BME280;24103;42.454;27.400;2023-05-10T10:35:59;101298.69;;;16.46;73.94
38303;BME280;24103;42.454;27.400;2023-05-10T10:38:25;101295.19;;;16.19;74.94
38303;BME280;24103;42.454;27.400;2023-05-10T10:41:09;101323.34;;;16.36;73.56
38303;BME280;24103;42.454;27.400;2023-05-10T10:43:35;101304.97;;;15.80;70.83
38303;BME280;24103;42.454;27.400;2023-05-10T10:46:16;101310.41;;;15.79;74.13
38303;BME280;24103;42.454;27.400;2023-05-10T10:48:50;101323.53;;;15.95;73.46
38303;BME280;24103;42.454;27.400;2023-05-10T10:51:39;101310.84;;;15.98;71.59
38303;BME280;24103;42.454;27.400;2023-05-10T10:54:09;101306.31;;;15.73;77.54
38303;BME280;24103;42.454;27.400;2023-05-10T10:56:35;101315.09;;;15.88;74.37
38303;BME280;24103;42.454;27.400;2023-05-10T10:59:01;101310.09;;;15.96;75.52
38303;BME280;24103;42.454;27.400;2023-05-10T11:01:32;101303.72;;;15.99;74.34
38303;BME280;24103;42.454;27.400;2023-05-10T11:06:31;101305.72;;;15.82;78.71
38303;BME280;24103;42.454;27.400;2023-05-10T11:09:05;101303.38;;;15.51;77.14
38303;BME280;24103;42.454;27.400;2023-05-10T11:11:31;101306.91;;;15.64;74.88
38303;BME280;24103;42.454;27.400;2023-05-10T11:14:06;101290.19;;;15.62;71.30
38303;BME280;24103;42.454;27.400;2023-05-10T11:16:42;101282.50;;;15.84;71.94
38303;BME280;24103;42.454;27.400;2023-05-10T11:19:12;101297.63;;;15.84;69.55
38303;BME280;24103;42.454;27.400;2023-05-10T11:22:11;101278.38;;;15.66;68.58
38303;BME280;24103;42.454;27.400;2023-05-10T11:24:38;101282.50;;;15.57;70.54
38303;BME280;24103;42.454;27.400;2023-05-10T11:27:03;101302.31;;;15.53;66.47
38303;BME280;24103;42.454;27.400;2023-05-10T11:29:29;101295.81;;;15.57;65.32
38303;BME280;24103;42.454;27.400;2023-05-10T11:31:57;101296.34;;;15.50;68.30
38303;BME280;24103;42.454;27.400;2023-05-10T11:34:27;101296.59;;;15.32;71.61
38303;BME280;24103;42.454;27.400;2023-05-10T11:36:54;101302.31;;;15.53;75.17
38303;BME280;24103;42.454;27.400;2023-05-10T11:39:20;101294.56;;;15.23;70.08
38303;BME280;24103;42.454;27.400;2023-05-10T11:41:49;101307.91;;;15.08;77.24
38303;BME280;24103;42.454;27.400;2023-05-10T11:44:15;101304.41;;;15.08;77.54
38303;BME280;24103;42.454;27.400;2023-05-10T11:46:40;101304.38;;;15.75;77.87
38303;BME280;24103;42.454;27.400;2023-05-10T11:49:07;101303.91;;;15.43;73.69
38303;BME280;24103;42.454;27.400;2023-05-10T11:51:36;101298.53;;;15.30;74.36
38303;BME280;24103;42.454;27.400;2023-05-10T11:54:06;101314.56;;;15.43;70.16
38303;BME280;24103;42.454;27.400;2023-05-10T11:56:33;101302.31;;;15.26;69.12
38303;BME280;24103;42.454;27.400;2023-05-10T11:58:59;101292.38;;;15.42;71.05
38303;BME280;24103;42.454;27.400;2023-05-10T12:01:27;101295.66;;;15.33;64.82
38303;BME280;24103;42.454;27.400;2023-05-10T12:03:55;101284.28;;;15.31;66.57
38303;BME280;24103;42.454;27.400;2023-05-10T12:06:28;101279.47;;;15.09;67.03
38303;BME280;24103;42.454;27.400;2023-05-10T12:08:54;101287.22;;;15.26;72.08
38303;BME280;24103;42.454;27.400;2023-05-10T12:11:20;101293.50;;;15.25;70.27
38303;BME280;24103;42.454;27.400;2023-05-10T12:13:50;101285.09;;;15.32;71.58
38303;BME280;24103;42.454;27.400;2023-05-10T12:16:20;101279.78;;;15.32;73.00
38303;BME280;24103;42.454;27.400;2023-05-10T12:18:53;101291.09;;;15.35;73.78
38303;BME280;24103;42.454;27.400;2023-05-10T12:21:20;101294.19;;;15.42;72.80
38303;BME280;24103;42.454;27.400;2023-05-10T12:23:48;101285.09;;;15.32;73.45
38303;BME280;24103;42.454;27.400;2023-05-10T12:26:13;101296.81;;;15.29;74.68
38303;BME280;24103;42.454;27.400;2023-05-10T12:28:39;101283.03;;;15.22;77.23
38303;BME280;24103;42.454;27.400;2023-05-10T12:31:06;101288.03;;;15.14;71.97
38303;BME280;24103;42.454;27.400;2023-05-10T12:33:39;101261.66;;;15.24;70.01
38303;BME280;24103;42.454;27.400;2023-05-10T12:36:08;101271.06;;;15.29;73.05
38303;BME280;24103;42.454;27.400;2023-05-10T12:38:40;101279.50;;;15.36;74.20
38303;BME280;24103;42.454;27.400;2023-05-10T12:41:12;101261.75;;;15.62;75.80
38303;BME280;24103;42.454;27.400;2023-05-10T12:43:39;101270.03;;;15.45;69.60
38303;BME280;24103;42.454;27.400;2023-05-10T12:46:06;101265.03;;;15.13;70.73
38303;BME280;24103;42.454;27.400;2023-05-10T12:48:32;101254.50;;;15.11;76.16
38303;BME280;24103;42.454;27.400;2023-05-10T12:50:59;101242.81;;;15.27;72.54
38303;BME280;24103;42.454;27.400;2023-05-10T12:53:25;101246.75;;;15.34;68.10
38303;BME280;24103;42.454;27.400;2023-05-10T12:55:51;101250.00;;;15.12;69.70
38303;BME280;24103;42.454;27.400;2023-05-10T12:58:16;101255.72;;;15.06;66.65
38303;BME280;24103;42.454;27.400;2023-05-10T13:00:42;101265.28;;;14.96;69.14
38303;BME280;24103;42.454;27.400;2023-05-10T13:03:09;101248.09;;;15.14;69.14
38303;BME280;24103;42.454;27.400;2023-05-10T13:05:36;101248.91;;;15.42;68.54
38303;BME280;24103;42.454;27.400;2023-05-10T13:08:02;101252.81;;;15.23;67.81
38303;BME280;24103;42.454;27.400;2023-05-10T13:10:29;101253.97;;;15.19;68.95
38303;BME280;24103;42.454;27.400;2023-05-10T13:12:55;101242.50;;;14.91;63.43
38303;BME280;24103;42.454;27.400;2023-05-10T13:15:20;101237.75;;;14.82;66.83
38303;BME280;24103;42.454;27.400;2023-05-10T13:17:46;101236.28;;;14.91;70.57